Time;durP1;ratioP1;P1;durP2;ratioP2;P2;SDS_P1;SDS_P2;PMS_P1;PMS_P2;Temp;Humidity;BMP_temperature;BMP_pressure;BME280_temperature;BME280_humidity;BME280_pressure;Samples;Min_cycle;Max_cycle;Signal;HPM_P1;HPM_P2
2021/07/03 00:02:02;;;;;;;11.37;6.13;;;;;;;16.29;71.12;101722.91;3580423;40;20241;-78
2021/07/03 00:04:27;;;;;;;5.57;4.57;;;;;;;16.26;70.81;101730.66;3571472;40;20628;-77
2021/07/03 00:06:53;;;;;;;6.30;4.90;;;;;;;16.19;70.77;101716.81;3570254;40;20230;-78
2021/07/03 00:09:18;;;;;;;5.63;5.13;;;;;;;16.14;70.73;101725.34;3578875;40;20336;-77
2021/07/03 00:11:44;;;;;;;9.83;5.93;;;;;;;16.08;71.32;101718.41;3580061;40;20315;-77
2021/07/03 00:14:10;;;;;;;7.27;5.33;;;;;;;16.00;71.25;101719.16;3580177;40;20241;-79
2021/07/03 00:16:36;;;;;;;6.60;5.87;;;;;;;16.00;71.32;101714.00;3579411;40;20244;-77
2021/07/03 00:19:02;;;;;;;7.10;5.40;;;;;;;15.91;71.46;101719.94;3577912;40;20643;-78
2021/07/03 00:21:28;;;;;;;6.87;6.00;;;;;;;15.84;71.68;101718.09;3579854;40;20288;-77
2021/07/03 00:23:53;;;;;;;6.90;5.50;;;;;;;15.80;71.65;101715.47;3581355;40;20311;-76
2021/07/03 00:26:21;;;;;;;12.47;6.93;;;;;;;15.63;72.99;101730.75;3578703;40;20695;-78
2021/07/03 00:28:47;;;;;;;8.53;6.30;;;;;;;15.58;72.73;101727.25;3570576;40;20223;-77
2021/07/03 00:31:12;;;;;;;7.23;6.07;;;;;;;15.59;72.11;101726.41;3576883;40;20238;-77
2021/07/03 00:33:37;;;;;;;7.70;6.43;;;;;;;15.51;72.65;101722.84;3579847;40;20230;-77
2021/07/03 00:36:03;;;;;;;6.90;5.67;;;;;;;15.44;73.15;101721.03;3580355;40;20608;-77
2021/07/03 00:38:28;;;;;;;7.30;5.20;;;;;;;15.45;72.82;101716.72;3580900;40;20252;-77
2021/07/03 00:40:53;;;;;;;9.00;7.23;;;;;;;15.46;72.59;101709.00;3580707;40;20244;-76
2021/07/03 00:43:19;;;;;;;7.73;5.73;;;;;;;15.42;73.25;101716.72;3580413;40;20234;-77
2021/07/03 00:45:44;;;;;;;7.40;5.80;;;;;;;15.35;72.93;101710.59;3579406;40;20230;-76
2021/07/03 00:48:10;;;;;;;7.47;6.10;;;;;;;15.35;72.43;101715.75;3580284;40;20307;-77
2021/07/03 00:50:35;;;;;;;10.60;7.43;;;;;;;15.30;72.51;101712.22;3579979;40;20289;-77
2021/07/03 00:53:01;;;;;;;7.03;5.53;;;;;;;15.24;72.69;101711.25;3579712;40;20637;-77
2021/07/03 00:55:26;;;;;;;7.00;6.23;;;;;;;15.18;72.22;101713.72;3580200;40;20265;-77
2021/07/03 00:57:53;;;;;;;7.17;5.73;;;;;;;15.14;72.46;101720.56;3580185;40;20688;-76
2021/07/03 01:00:18;;;;;;;6.60;5.97;;;;;;;15.07;72.61;101716.16;3577151;40;20765;-76
2021/07/03 01:02:44;;;;;;;10.07;6.77;;;;;;;14.98;73.23;101721.19;3571356;40;20223;-77
2021/07/03 01:05:11;;;;;;;7.40;5.97;;;;;;;14.99;72.89;101722.91;3579537;40;20229;-77
2021/07/03 01:07:36;;;;;;;8.10;6.07;;;;;;;14.95;73.02;101722.81;3577645;40;20593;-76
2021/07/03 01:10:04;;;;;;;7.63;6.17;;;;;;;14.92;73.21;101727.94;3569547;40;20254;-76
2021/07/03 01:12:29;;;;;;;8.07;5.87;;;;;;;14.93;73.27;101725.41;3570250;40;20234;-76
2021/07/03 01:14:55;;;;;;;7.43;6.10;;;;;;;14.87;73.33;101729.59;3576799;40;20316;-75
2021/07/03 01:17:20;;;;;;;7.40;6.10;;;;;;;14.85;73.72;101726.09;3580330;40;20224;-76
2021/07/03 01:19:46;;;;;;;7.33;5.83;;;;;;;14.80;73.21;101732.91;3579684;40;20641;-77
2021/07/03 01:22:13;;;;;;;8.57;7.10;;;;;;;14.75;73.71;101721.66;3579651;40;20254;-76
2021/07/03 01:24:40;;;;;;;8.13;6.30;;;;;;;14.74;73.95;101725.91;3580280;40;20218;-76
2021/07/03 01:27:08;;;;;;;8.63;7.73;;;;;;;14.71;74.05;101728.47;3580956;40;20222;-77
2021/07/03 01:29:34;;;;;;;7.87;6.40;;;;;;;14.66;74.28;101724.94;3579949;40;20256;-77
2021/07/03 01:32:01;;;;;;;7.80;6.73;;;;;;;14.63;74.28;101729.16;3577902;40;20218;-77
2021/07/03 01:34:28;;;;;;;10.00;7.57;;;;;;;14.55;73.86;101728.19;3580098;40;20233;-78
2021/07/03 01:36:55;;;;;;;8.30;6.73;;;;;;;14.47;74.19;101724.59;3580217;40;20230;-76
2021/07/03 01:39:22;;;;;;;6.87;6.17;;;;;;;14.46;74.21;101728.88;3579776;40;20226;-76
2021/07/03 01:41:47;;;;;;;8.80;7.90;;;;;;;14.43;73.96;101726.25;3580855;40;20246;-78
2021/07/03 01:44:18;;;;;;;8.37;7.57;;;;;;;14.40;73.46;101717.56;3581798;40;20609;-78
2021/07/03 01:46:43;;;;;;;8.20;7.07;;;;;;;14.38;73.59;101729.59;3580959;40;20236;-78
2021/07/03 01:49:09;;;;;;;6.80;5.60;;;;;;;14.37;73.74;101725.28;3581409;40;20242;-77
2021/07/03 01:51:34;;;;;;;7.37;6.47;;;;;;;14.36;73.46;101715.81;3579250;40;20241;-77
2021/07/03 01:54:01;;;;;;;6.90;6.20;;;;;;;14.35;74.02;101729.50;3571983;40;20518;-77
2021/07/03 01:56:26;;;;;;;8.13;6.43;;;;;;;14.28;73.20;101720.81;3580357;40;20261;-78
2021/07/03 01:58:51;;;;;;;11.00;7.47;;;;;;;14.26;73.34;101714.78;3579011;40;20295;-77
2021/07/03 02:01:17;;;;;;;9.17;6.23;;;;;;;14.21;73.70;101713.81;3579488;40;20249;-77
2021/07/03 02:03:43;;;;;;;8.13;6.87;;;;;;;14.16;74.32;101715.41;3580355;40;20214;-77
2021/07/03 02:06:08;;;;;;;8.33;6.30;;;;;;;14.11;74.54;101714.44;3578740;40;20226;-77
2021/07/03 02:08:35;;;;;;;11.40;8.97;;;;;;;13.99;74.91;101718.50;3575181;40;20218;-76
2021/07/03 02:11:01;;;;;;;9.80;8.80;;;;;;;13.92;75.02;101711.50;3569603;40;20311;-76
2021/07/03 02:13:28;;;;;;;9.60;6.95;;;;;;;13.93;74.67;101715.78;3572853;40;20226;-76
2021/07/03 02:15:54;;;;;;;9.10;6.67;;;;;;;13.91;74.38;101712.34;3583730;40;20608;-77
2021/07/03 02:18:19;;;;;;;6.90;5.77;;;;;;;13.92;74.53;101711.50;3583794;40;20228;-78
2021/07/03 02:20:45;;;;;;;9.13;6.77;;;;;;;13.92;74.43;101707.22;3579944;40;20249;-76
2021/07/03 02:23:10;;;;;;;6.23;5.40;;;;;;;13.90;74.23;101703.72;3575790;40;20215;-76
2021/07/03 02:25:36;;;;;;;6.10;5.50;;;;;;;13.89;74.20;101707.16;3570188;40;20230;-77
2021/07/03 02:28:01;;;;;;;8.17;6.60;;;;;;;13.81;74.69;101707.84;3570522;40;20296;-76
2021/07/03 02:30:27;;;;;;;7.30;6.30;;;;;;;13.75;74.17;101705.13;3569069;40;20250;-77
2021/07/03 02:32:52;;;;;;;8.10;5.97;;;;;;;13.74;74.25;101704.28;3570217;40;20234;-77
2021/07/03 02:35:19;;;;;;;7.50;5.77;;;;;;;13.66;74.39;101697.22;3569366;40;20297;-76
2021/07/03 02:37:46;;;;;;;7.60;6.80;;;;;;;13.62;73.98;101693.72;3569773;40;20250;-77
2021/07/03 02:40:13;;;;;;;9.50;7.00;;;;;;;13.54;74.67;101700.41;3568887;40;20246;-76
2021/07/03 02:42:40;;;;;;;6.57;5.87;;;;;;;13.51;74.54;101707.19;3569003;40;20268;-77
2021/07/03 02:45:07;;;;;;;6.80;5.97;;;;;;;13.48;74.27;101707.16;3568577;40;20230;-78
2021/07/03 02:47:34;;;;;;;8.67;6.60;;;;;;;13.45;74.32;101709.66;3570671;40;20237;-77
2021/07/03 02:49:59;;;;;;;7.50;6.80;;;;;;;13.42;74.68;101707.00;3572912;40;20323;-77
2021/07/03 02:52:24;;;;;;;9.33;7.00;;;;;;;13.38;74.68;101710.31;3571065;40;20227;-78
2021/07/03 02:54:50;;;;;;;7.60;6.77;;;;;;;13.41;74.59;101702.69;3573717;40;20619;-76
2021/07/03 02:57:16;;;;;;;7.20;6.47;;;;;;;13.42;74.81;101704.41;3576457;40;20257;-79
2021/07/03 02:59:41;;;;;;;8.60;6.70;;;;;;;13.41;74.93;101707.84;3579482;40;20654;-78
2021/07/03 03:02:07;;;;;;;8.53;7.10;;;;;;;13.36;74.68;101705.19;3577802;40;20234;-77
2021/07/03 03:04:32;;;;;;;7.90;7.10;;;;;;;13.35;74.34;101708.56;3568841;40;20301;-78
2021/07/03 03:06:57;;;;;;;7.33;5.83;;;;;;;13.33;74.35;101705.09;3568649;40;20629;-76
2021/07/03 03:09:22;;;;;;;8.00;7.00;;;;;;;13.28;74.34;101711.84;3568600;40;20222;-77
2021/07/03 03:11:48;;;;;;;13.03;10.03;;;;;;;13.32;74.43;101713.66;3569191;40;20242;-77
2021/07/03 03:14:13;;;;;;;9.90;7.10;;;;;;;13.33;74.30;101712.81;3577192;40;20230;-77
2021/07/03 03:16:38;;;;;;;8.83;7.30;;;;;;;13.34;74.41;101713.66;3577631;40;20234;-77
2021/07/03 03:19:03;;;;;;;12.97;10.20;;;;;;;13.19;75.08;101708.19;3577477;40;20230;-77
2021/07/03 03:21:29;;;;;;;10.23;7.90;;;;;;;13.16;75.37;101714.13;3572923;40;20248;-77
2021/07/03 03:23:54;;;;;;;9.93;7.23;;;;;;;13.20;74.87;101715.06;3578121;40;20257;-77
2021/07/03 03:26:20;;;;;;;8.07;6.63;;;;;;;13.23;74.77;101707.44;3571541;40;20576;-76
2021/07/03 03:28:45;;;;;;;12.70;9.43;;;;;;;13.23;74.88;101715.16;3569033;40;20223;-77
2021/07/03 03:31:10;;;;;;;11.20;8.67;;;;;;;13.20;75.16;101710.81;3574378;40;20530;-76
2021/07/03 03:33:35;;;;;;;8.07;7.03;;;;;;;13.29;75.30;101718.72;3578467;40;20231;-77
2021/07/03 03:36:01;;;;;;;7.90;7.10;;;;;;;13.40;74.77;101716.41;3578228;40;20242;-76
2021/07/03 03:38:26;;;;;;;7.50;6.73;;;;;;;13.52;74.52;101720.09;3577141;40;20714;-76
2021/07/03 03:40:52;;;;;;;10.47;8.13;;;;;;;13.65;74.60;101708.34;3578422;40;20241;-76
2021/07/03 03:43:19;;;;;;;8.77;7.47;;;;;;;13.76;74.08;101701.72;3578885;40;20230;-76
2021/07/03 03:45:44;;;;;;;9.27;7.93;;;;;;;13.80;73.98;101712.09;3567709;40;20312;-75
2021/07/03 03:48:09;;;;;;;8.43;6.83;;;;;;;13.84;74.69;101710.44;3567833;40;20219;-76
2021/07/03 03:50:35;;;;;;;10.90;9.17;;;;;;;13.87;74.79;101710.53;3566598;40;20242;-76
2021/07/03 03:53:01;;;;;;;8.47;7.57;;;;;;;13.93;75.06;101714.09;3568879;40;20238;-77
2021/07/03 03:55:27;;;;;;;11.50;10.00;;;;;;;13.99;75.58;101711.63;3573638;40;20239;-77
2021/07/03 03:57:52;;;;;;;10.67;8.23;;;;;;;14.01;75.92;101706.50;3568211;40;20555;-76
2021/07/03 04:00:18;;;;;;;10.43;8.40;;;;;;;14.07;75.71;101710.06;3578077;40;20245;-78
2021/07/03 04:02:44;;;;;;;12.40;11.03;;;;;;;14.13;75.47;101712.75;3579410;40;20214;-77
2021/07/03 04:05:10;;;;;;;10.03;8.97;;;;;;;14.15;76.23;101712.78;3579890;40;20226;-78
2021/07/03 04:07:36;;;;;;;10.47;9.33;;;;;;;14.18;75.71;101715.44;3580869;40;20303;-78
2021/07/03 04:10:03;;;;;;;16.97;11.67;;;;;;;14.24;75.59;101719.03;3578854;40;20272;-76
2021/07/03 04:12:29;;;;;;;13.27;11.37;;;;;;;14.30;75.19;101721.72;3569652;40;20227;-77
2021/07/03 04:14:54;;;;;;;11.20;9.97;;;;;;;14.46;75.42;101717.72;3569485;40;20278;-78
2021/07/03 04:17:19;;;;;;;15.50;13.43;;;;;;;14.49;76.54;101712.59;3568301;40;20625;-77
2021/07/03 04:19:44;;;;;;;16.80;13.60;;;;;;;14.54;76.73;101722.16;3569357;40;20214;-78
2021/07/03 04:22:10;;;;;;;17.90;14.97;;;;;;;14.82;76.86;101721.75;3571368;40;20230;-78
2021/07/03 04:24:35;;;;;;;19.43;16.13;;;;;;;14.84;76.55;101720.09;3576609;40;20523;-78
2021/07/03 04:27:02;;;;;;;22.73;17.27;;;;;;;14.84;77.60;101720.09;3580112;40;20228;-78
2021/07/03 04:29:29;;;;;;;19.47;14.43;;;;;;;14.95;77.07;101717.66;3569731;40;20231;-76
2021/07/03 04:31:54;;;;;;;16.50;14.60;;;;;;;15.02;77.12;101724.66;3569818;40;20246;-77
2021/07/03 04:34:20;;;;;;;17.20;14.67;;;;;;;15.09;76.64;101716.16;3569437;40;20482;-77
2021/07/03 04:36:45;;;;;;;19.23;16.47;;;;;;;15.21;77.34;101717.22;3569775;40;20246;-77
2021/07/03 04:39:10;;;;;;;15.47;13.27;;;;;;;15.38;76.37;101714.94;3577081;40;20238;-77
2021/07/03 04:41:37;;;;;;;19.80;16.47;;;;;;;15.43;76.28;101716.69;3580303;40;20602;-76
2021/07/03 04:44:04;;;;;;;19.17;16.13;;;;;;;15.57;76.00;101719.50;3579959;40;20711;-78
2021/07/03 04:46:29;;;;;;;15.17;13.37;;;;;;;15.72;75.90;101720.56;3579003;40;20245;-77
2021/07/03 04:48:55;;;;;;;18.87;15.10;;;;;;;15.75;75.67;101715.41;3579094;40;20548;-77
2021/07/03 04:51:20;;;;;;;18.63;16.57;;;;;;;15.77;75.11;101715.44;3579662;40;20249;-77
2021/07/03 04:53:45;;;;;;;20.43;17.60;;;;;;;15.83;74.91;101716.38;3579962;40;20225;-79
2021/07/03 04:56:11;;;;;;;20.73;16.30;;;;;;;16.05;74.18;101714.91;3579750;40;20214;-77
2021/07/03 04:58:36;;;;;;;19.63;13.90;;;;;;;16.11;74.85;101718.44;3579649;40;20569;-79
2021/07/03 05:01:01;;;;;;;13.63;11.20;;;;;;;16.22;74.28;101710.78;3578718;40;20234;-79
2021/07/03 05:03:27;;;;;;;16.57;13.97;;;;;;;16.27;73.88;101722.94;3578650;40;20234;-77
2021/07/03 05:05:52;;;;;;;15.70;14.00;;;;;;;16.25;73.07;101713.41;3579089;40;20233;-79
2021/07/03 05:08:17;;;;;;;16.07;13.27;;;;;;;16.35;72.93;101715.25;3578034;40;20226;-78
2021/07/03 05:10:42;;;;;;;13.97;12.53;;;;;;;16.58;72.46;101714.63;3570103;40;20243;-77
2021/07/03 05:13:08;;;;;;;14.30;12.60;;;;;;;16.90;71.51;101720.09;3569300;40;20533;-76
2021/07/03 05:15:33;;;;;;;12.63;10.73;;;;;;;17.16;71.53;101721.13;3570712;40;20569;-77
2021/07/03 05:17:58;;;;;;;15.47;13.63;;;;;;;16.97;71.39;101719.25;3570796;40;20218;-77
2021/07/03 05:20:23;;;;;;;14.13;12.63;;;;;;;16.76;72.43;101719.09;3573569;40;20342;-76
2021/07/03 05:22:49;;;;;;;17.23;13.53;;;;;;;16.66;72.73;101725.91;3573024;40;20238;-76
2021/07/03 05:25:14;;;;;;;17.20;14.77;;;;;;;16.67;72.80;101727.63;3580104;40;20218;-76
2021/07/03 05:27:39;;;;;;;16.80;14.63;;;;;;;16.71;73.79;101731.13;3572928;40;20218;-77
2021/07/03 05:30:06;;;;;;;19.10;15.67;;;;;;;16.65;73.62;101733.66;3570105;40;20246;-77
2021/07/03 05:32:31;;;;;;;16.93;15.13;;;;;;;16.54;74.16;101735.28;3569897;40;20324;-76
2021/07/03 05:34:56;;;;;;;15.47;13.90;;;;;;;16.64;73.98;101727.63;3575483;40;20270;-76
2021/07/03 05:37:22;;;;;;;20.20;15.30;;;;;;;16.68;72.84;101725.94;3571758;40;20246;-76
2021/07/03 05:39:47;;;;;;;19.87;16.77;;;;;;;16.77;72.86;101733.78;3569829;40;20232;-78
2021/07/03 05:42:12;;;;;;;20.40;17.57;;;;;;;17.03;72.42;101724.47;3570728;40;20249;-77
2021/07/03 05:44:38;;;;;;;16.73;14.97;;;;;;;17.36;71.05;101724.72;3577884;40;20226;-77
2021/07/03 05:47:03;;;;;;;20.03;16.30;;;;;;;17.51;70.66;101723.13;3578383;40;20210;-77
2021/07/03 05:49:28;;;;;;;19.93;15.30;;;;;;;17.61;70.30;101724.91;3572813;40;20841;-77
2021/07/03 05:51:54;;;;;;;17.47;15.17;;;;;;;17.70;69.54;101727.53;3569146;40;20245;-77
2021/07/03 05:54:19;;;;;;;18.17;15.13;;;;;;;17.95;69.17;101718.97;3571911;40;20221;-77
2021/07/03 05:56:44;;;;;;;19.97;15.27;;;;;;;18.04;68.38;101728.50;3568467;40;20219;-76
2021/07/03 05:59:10;;;;;;;17.77;14.43;;;;;;;18.19;68.59;101718.19;3573060;40;20225;-78
2021/07/03 06:01:36;;;;;;;16.07;13.60;;;;;;;18.52;66.88;101718.28;3577219;40;20258;-79
2021/07/03 06:04:01;;;;;;;16.83;14.67;;;;;;;18.60;66.80;101714.00;3573312;40;20505;-77
2021/07/03 06:06:26;;;;;;;18.57;14.53;;;;;;;18.67;65.66;101715.69;3568519;40;20230;-77
2021/07/03 06:08:51;;;;;;;15.30;13.70;;;;;;;18.96;65.55;101707.03;3577489;40;20229;-77
2021/07/03 06:11:17;;;;;;;17.27;12.23;;;;;;;19.35;64.51;101709.59;3566343;40;20600;-77
2021/07/03 06:13:42;;;;;;;16.40;12.07;;;;;;;19.50;64.36;101706.09;3576314;40;20629;-77
2021/07/03 06:16:08;;;;;;;14.77;12.80;;;;;;;19.12;64.95;101710.50;3579021;40;20225;-77
2021/07/03 06:18:33;;;;;;;13.83;11.03;;;;;;;19.59;63.24;101709.56;3569403;40;20222;-77
2021/07/03 06:20:59;;;;;;;12.33;11.03;;;;;;;19.34;63.74;101699.22;3578163;40;20229;-77
2021/07/03 06:23:26;;;;;;;12.00;10.80;;;;;;;19.20;64.16;101698.38;3579703;40;20224;-78
2021/07/03 06:25:52;;;;;;;13.17;9.63;;;;;;;19.53;62.48;101696.56;3579532;40;20257;-77
2021/07/03 06:28:18;;;;;;;11.73;9.37;;;;;;;19.74;62.46;101691.28;3579461;40;20639;-77
2021/07/03 06:30:43;;;;;;;9.60;8.07;;;;;;;19.36;62.77;101692.28;3577476;40;20742;-77
2021/07/03 06:33:08;;;;;;;11.00;8.60;;;;;;;19.46;62.91;101693.97;3579114;40;20248;-77
2021/07/03 06:35:34;;;;;;;10.93;9.27;;;;;;;18.91;64.32;101693.22;3576930;40;20234;-78
2021/07/03 06:37:59;;;;;;;10.07;8.80;;;;;;;18.97;64.58;101694.94;3577989;40;20311;-78
2021/07/03 06:40:27;;;;;;;11.70;8.43;;;;;;;19.04;63.98;101691.44;3578401;40;20254;-77
2021/07/03 06:42:54;;;;;;;10.63;8.20;;;;;;;19.27;63.57;101695.78;3581097;40;20689;-78
2021/07/03 06:45:19;;;;;;;10.80;7.90;;;;;;;19.95;61.07;101682.53;3582956;40;20213;-77
2021/07/03 06:47:44;;;;;;;9.47;7.50;;;;;;;19.44;62.98;101698.34;3582755;40;20229;-78
2021/07/03 06:50:10;;;;;;;8.53;7.33;;;;;;;19.22;62.07;101700.13;3579323;40;20644;-77
2021/07/03 06:52:35;;;;;;;8.77;7.63;;;;;;;19.24;62.00;101697.50;3579161;40;20230;-77
2021/07/03 06:55:02;;;;;;;10.03;8.17;;;;;;;19.62;61.13;101690.47;3579438;40;20566;-77
2021/07/03 06:57:27;;;;;;;8.53;6.97;;;;;;;19.94;59.24;101692.03;3569015;40;20230;-77
2021/07/03 06:59:52;;;;;;;8.73;6.87;;;;;;;20.26;59.06;101694.53;3568736;40;20218;-79
2021/07/03 07:02:19;;;;;;;9.80;6.40;;;;;;;19.76;59.31;101697.34;3569085;40;20640;-77
2021/07/03 07:04:44;;;;;;;8.63;6.37;;;;;;;19.36;59.59;101697.47;3569060;40;20587;-77
2021/07/03 07:07:09;;;;;;;6.67;5.97;;;;;;;19.39;60.71;101693.13;3569277;40;20226;-78
2021/07/03 07:09:35;;;;;;;8.83;6.60;;;;;;;20.13;58.82;101691.09;3568369;40;20223;-76
2021/07/03 07:12:00;;;;;;;10.10;7.50;;;;;;;20.11;58.30;101697.19;3575808;40;20349;-77
2021/07/03 07:14:26;;;;;;;10.17;7.70;;;;;;;20.09;58.85;101693.75;3568528;40;20230;-79
2021/07/03 07:16:51;;;;;;;10.23;6.60;;;;;;;19.88;58.77;101696.41;3568701;40;20336;-77
2021/07/03 07:19:16;;;;;;;8.03;6.40;;;;;;;20.12;59.38;101686.78;3568654;40;20243;-78
2021/07/03 07:21:42;;;;;;;8.30;6.63;;;;;;;20.26;58.46;101690.16;3568979;40;20266;-77
2021/07/03 07:24:07;;;;;;;8.97;6.80;;;;;;;20.15;57.85;101685.91;3576619;40;20239;-80
2021/07/03 07:26:33;;;;;;;9.20;7.33;;;;;;;20.15;57.60;101689.38;3576422;40;20234;-78
2021/07/03 07:28:58;;;;;;;8.37;6.47;;;;;;;20.69;57.71;101686.34;3568827;40;20225;-79
2021/07/03 07:31:24;;;;;;;8.40;7.03;;;;;;;20.53;57.33;101689.09;3569162;40;20238;-76
2021/07/03 07:33:50;;;;;;;9.07;7.80;;;;;;;20.47;57.89;101683.94;3570227;40;20254;-77
2021/07/03 07:36:15;;;;;;;9.23;7.80;;;;;;;20.37;56.91;101692.69;3570589;40;20241;-78
2021/07/03 07:38:41;;;;;;;9.47;8.23;;;;;;;19.97;58.29;101693.75;3571029;40;20249;-76
2021/07/03 07:41:06;;;;;;;9.53;7.90;;;;;;;20.46;57.95;101690.03;3580653;40;20258;-76
2021/07/03 07:43:32;;;;;;;9.73;8.20;;;;;;;20.96;56.75;101691.34;3571385;40;20261;-78
2021/07/03 07:45:57;;;;;;;11.53;7.17;;;;;;;21.66;53.74;101683.66;3578002;40;20266;-79
2021/07/03 07:48:23;;;;;;;9.30;7.10;;;;;;;22.38;54.10;101669.59;3570341;40;20236;-77
2021/07/03 07:50:49;;;;;;;9.30;6.47;;;;;;;23.02;51.58;101680.72;3570110;40;20245;-78
2021/07/03 07:53:14;;;;;;;7.70;6.13;;;;;;;22.99;50.50;101678.19;3577503;40;20345;-77
2021/07/03 07:55:40;;;;;;;6.50;5.83;;;;;;;21.95;53.11;101684.16;3571704;40;20214;-78
2021/07/03 07:58:05;;;;;;;8.60;6.90;;;;;;;21.62;53.66;101688.03;3579330;40;20615;-77
2021/07/03 08:00:30;;;;;;;8.13;6.27;;;;;;;21.80;53.23;101681.75;3579296;40;20303;-76
2021/07/03 08:02:56;;;;;;;7.97;6.20;;;;;;;22.14;53.06;101675.19;3580168;40;20225;-76
2021/07/03 08:05:21;;;;;;;7.57;5.05;;;;;;;22.75;49.93;101669.91;3580339;40;20230;-77
2021/07/03 08:07:47;;;;;;;5.67;4.63;;;;;;;23.49;48.84;101666.78;3564065;40;20239;-77
2021/07/03 08:10:13;;;;;;;6.43;5.83;;;;;;;23.84;48.09;101665.16;3574871;40;20238;-78
2021/07/03 08:12:39;;;;;;;6.60;5.93;;;;;;;23.32;49.30;101672.34;3570679;40;20238;-78
2021/07/03 08:15:05;;;;;;;8.37;6.23;;;;;;;22.42;51.03;101669.53;3572699;40;20221;-77
2021/07/03 08:17:31;;;;;;;7.67;5.90;;;;;;;21.62;52.62;101669.78;3580483;40;20239;-78
2021/07/03 08:19:57;;;;;;;6.87;5.33;;;;;;;21.45;53.55;101671.72;3580125;40;20241;-77
2021/07/03 08:22:23;;;;;;;8.80;5.10;;;;;;;21.66;51.75;101665.41;3580385;40;20222;-77
2021/07/03 08:24:48;;;;;;;7.63;5.63;;;;;;;22.98;50.39;101655.53;3573092;40;20222;-78
2021/07/03 08:27:13;;;;;;;5.13;4.57;;;;;;;23.83;48.70;101655.56;3570267;40;20214;-78
2021/07/03 08:29:38;;;;;;;6.10;5.17;;;;;;;23.61;46.82;101656.09;3570090;40;20222;-77
2021/07/03 08:32:04;;;;;;;6.97;4.63;;;;;;;23.29;49.56;101659.31;3570230;40;20810;-78
2021/07/03 08:34:29;;;;;;;5.88;4.25;;;;;;;22.91;50.55;101663.50;3570645;40;20226;-78
2021/07/03 08:36:54;;;;;;;6.87;5.00;;;;;;;22.28;50.40;101666.28;3570379;40;20294;-77
2021/07/03 08:39:20;;;;;;;6.23;4.43;;;;;;;22.44;50.86;101664.28;3570337;40;20230;-77
2021/07/03 08:41:45;;;;;;;6.30;4.27;;;;;;;22.96;49.13;101657.31;3576827;40;20237;-78
2021/07/03 08:44:13;;;;;;;5.33;4.17;;;;;;;23.90;47.55;101656.34;3574098;40;20238;-78
2021/07/03 08:46:38;;;;;;;8.07;5.23;;;;;;;24.14;47.67;101647.94;3570078;40;20218;-77
2021/07/03 08:49:04;;;;;;;6.63;5.43;;;;;;;24.43;46.74;101645.47;3571047;40;20231;-78
2021/07/03 08:51:30;;;;;;;7.10;5.93;;;;;;;25.01;44.36;101643.13;3570182;40;20269;-79
2021/07/03 08:53:55;;;;;;;7.13;4.95;;;;;;;24.46;44.49;101650.66;3572962;40;20266;-77
2021/07/03 08:56:20;;;;;;;6.10;4.95;;;;;;;23.46;46.34;101654.63;3569116;40;20249;-78
2021/07/03 08:58:46;;;;;;;7.18;4.97;;;;;;;23.28;48.03;101649.75;3575373;40;20229;-79
2021/07/03 09:01:11;;;;;;;7.25;4.97;;;;;;;22.74;50.64;101649.91;3573016;40;20331;-77
2021/07/03 09:03:37;;;;;;;6.50;5.78;;;;;;;22.33;51.37;101655.75;3575086;40;20613;-78
2021/07/03 09:06:06;;;;;;;6.00;5.13;;;;;;;22.20;51.37;101647.25;3569027;40;20233;-78
2021/07/03 09:08:32;;;;;;;8.80;6.28;;;;;;;22.02;50.71;101646.69;3568704;40;20552;-76
2021/07/03 09:11:05;;;;;;;8.07;5.47;;;;;;;22.94;48.66;101648.66;3578980;40;20732;-77
2021/07/03 09:13:31;;;;;;;7.75;5.72;;;;;;;23.77;46.18;101639.16;3575386;40;20335;-76
2021/07/03 09:15:56;;;;;;;5.78;5.20;;;;;;;24.79;43.91;101626.22;3573042;40;20230;-76
2021/07/03 09:18:22;;;;;;;6.47;5.80;;;;;;;24.65;43.87;101628.34;3570043;40;20235;-76
2021/07/03 09:20:55;;;;;;;6.72;5.55;;;;;;;24.55;46.18;101627.72;3570253;40;20259;-77
2021/07/03 09:23:31;;;;;;;6.90;5.07;;;;;;;23.66;47.91;101643.75;3575324;40;20254;-77
2021/07/03 09:25:58;;;;;;;6.53;5.32;;;;;;;22.91;50.03;101637.38;3574704;40;20226;-77
2021/07/03 09:28:28;;;;;;;7.25;5.53;;;;;;;23.40;49.19;101635.59;3579514;40;20279;-76
2021/07/03 09:30:57;;;;;;;6.70;4.60;;;;;;;24.98;47.26;101616.97;3578344;40;20249;-76
2021/07/03 09:33:28;;;;;;;6.57;5.28;;;;;;;25.53;45.71;101614.53;3578730;40;20237;-75
2021/07/03 09:35:57;;;;;;;6.20;5.30;;;;;;;26.46;42.21;101608.94;3580212;40;20522;-78
2021/07/03 09:38:32;;;;;;;6.63;5.38;;;;;;;26.64;41.03;101608.34;3573545;40;20246;-78
2021/07/03 09:41:30;;;;;;;7.65;5.40;;;;;;;25.09;44.33;101615.78;3571761;40;20287;-77
2021/07/03 09:44:00;;;;;;;8.77;7.60;;;;;;;23.97;45.29;101629.13;3575471;40;20292;-78
2021/07/03 09:46:30;;;;;;;8.90;8.10;;;;;;;24.75;43.18;101617.59;3575098;40;20234;-76
2021/07/03 09:49:02;;;;;;;8.40;7.43;;;;;;;25.19;43.01;101621.63;3572275;40;20266;-76
2021/07/03 09:51:29;;;;;;;8.65;6.78;;;;;;;25.99;42.02;101615.75;3579069;40;20257;-78
2021/07/03 09:53:56;;;;;;;6.90;6.18;;;;;;;24.71;44.21;101618.56;3576954;40;20597;-76
2021/07/03 09:56:22;;;;;;;6.28;5.60;;;;;;;24.39;45.11;101628.09;3571208;40;20329;-78
2021/07/03 09:58:48;;;;;;;7.72;6.55;;;;;;;23.60;45.96;101631.66;3575384;40;20226;-76
2021/07/03 10:01:13;;;;;;;6.78;5.30;;;;;;;24.24;45.93;101620.63;3579162;40;20750;-77
2021/07/03 10:03:42;;;;;;;7.25;5.40;;;;;;;24.36;45.21;101621.19;3577692;40;21194;-77
2021/07/03 10:06:13;;;;;;;6.60;5.72;;;;;;;23.57;47.58;101623.03;3573726;40;20230;-77
2021/07/03 10:08:43;;;;;;;8.75;5.45;;;;;;;24.03;47.19;101616.75;3570323;40;20606;-79
2021/07/03 10:11:10;;;;;;;5.47;4.97;;;;;;;24.81;45.73;101611.34;3572933;40;20238;-76
2021/07/03 10:13:40;;;;;;;5.30;4.78;;;;;;;25.68;42.18;101612.31;3570175;40;20296;-77
2021/07/03 10:16:10;;;;;;;5.65;4.78;;;;;;;26.30;41.84;101605.13;3573823;40;20415;-77
2021/07/03 10:18:36;;;;;;;6.97;4.85;;;;;;;27.16;41.25;101602.97;3578431;40;20236;-78
2021/07/03 10:21:11;;;;;;;4.00;3.50;;;;;;;26.31;40.06;101606.84;3576197;40;20637;-77
2021/07/03 10:23:40;;;;;;;4.97;3.55;;;;;;;25.61;41.60;101613.44;3572584;40;20232;-78
2021/07/03 10:26:06;;;;;;;7.93;3.88;;;;;;;25.34;42.79;101615.97;3575062;40;20318;-78
2021/07/03 10:28:33;;;;;;;6.53;4.38;;;;;;;25.37;42.94;101613.28;3578892;40;20683;-77
2021/07/03 10:31:11;;;;;;;7.95;4.45;;;;;;;25.91;41.29;101601.09;3569307;40;20250;-77
2021/07/03 10:33:50;;;;;;;8.98;5.22;;;;;;;25.63;42.85;101615.97;3574351;40;20222;-77
2021/07/03 10:36:30;;;;;;;10.68;5.43;;;;;;;25.87;40.90;101604.75;3577924;40;20265;-77
2021/07/03 10:38:57;;;;;;;7.45;4.40;;;;;;;25.86;41.04;101603.00;3573258;40;20285;-78
2021/07/03 10:41:25;;;;;;;7.13;4.85;;;;;;;26.23;40.85;101603.59;3577051;40;20241;-77
2021/07/03 10:43:53;;;;;;;5.47;4.10;;;;;;;27.19;40.83;101603.78;3578448;40;20214;-77
2021/07/03 10:46:45;;;;;;;4.47;3.90;;;;;;;27.32;38.13;101596.28;3577486;40;20235;-78
2021/07/03 10:49:16;;;;;;;4.43;3.70;;;;;;;26.76;40.21;101602.69;3568871;40;20242;-77
2021/07/03 10:51:49;;;;;;;4.18;3.45;;;;;;;25.01;41.03;101604.63;3569616;40;20242;-77
2021/07/03 10:54:28;;;;;;;5.28;3.63;;;;;;;25.13;41.77;101601.69;3577126;40;20237;-77
2021/07/03 10:57:03;;;;;;;5.20;4.00;;;;;;;25.50;43.00;101596.28;3579553;40;20283;-76
2021/07/03 10:59:31;;;;;;;7.45;4.20;;;;;;;25.91;41.37;101603.72;3571192;40;20222;-75
2021/07/03 11:02:16;;;;;;;6.80;4.22;;;;;;;25.30;42.31;101604.72;3569067;40;20282;-77
2021/07/03 11:04:49;;;;;;;4.55;3.80;;;;;;;25.60;42.53;101602.97;3563062;40;20227;-75
2021/07/03 11:07:26;;;;;;;5.70;3.92;;;;;;;26.40;41.26;101596.03;3577382;40;20702;-76
2021/07/03 11:09:51;;;;;;;4.90;4.30;;;;;;;26.09;40.42;101598.81;3575457;40;20230;-76
2021/07/03 11:12:19;;;;;;;5.00;3.83;;;;;;;26.58;40.21;101587.56;3574697;40;20338;-79
2021/07/03 11:14:52;;;;;;;5.25;3.70;;;;;;;26.73;39.18;101585.25;3570098;40;20239;-78
2021/07/03 11:17:19;;;;;;;6.22;3.58;;;;;;;27.16;39.01;101592.44;3577529;40;20307;-76
2021/07/03 11:19:52;;;;;;;5.20;3.70;;;;;;;27.24;38.91;101588.66;3576086;40;20632;-77